createdAt,value
2023-02-09T00:01:42.223Z,1027.5
2023-02-09T00:07:08.604Z,1027.5
2023-02-09T00:12:19.025Z,1027.5
2023-02-09T00:18:01.420Z,1027.6
2023-02-09T00:25:40.005Z,1027.6
2023-02-09T00:27:58.329Z,1027.5
2023-02-09T00:33:20.665Z,1027.5
2023-02-09T00:37:47.141Z,1027.5
2023-02-09T00:42:53.532Z,1027.4
2023-02-09T00:47:39.902Z,1027.5
2023-02-09T00:53:06.292Z,1027.5
2023-02-09T00:59:04.794Z,1027.4
2023-02-09T01:02:59.064Z,1027.5
2023-02-09T01:08:29.460Z,1027.5
2023-02-09T01:13:31.845Z,1027.4
2023-02-09T01:18:18.208Z,1027.4
2023-02-09T01:23:24.578Z,1027.4
2023-02-09T01:28:31.007Z,1027.4
2023-02-09T01:33:37.367Z,1027.4
2023-02-09T01:39:03.805Z,1027.5
2023-02-09T01:43:50.107Z,1027.4
2023-02-09T01:48:56.551Z,1027.4
2023-02-09T01:54:02.911Z,1027.4
2023-02-09T01:59:33.417Z,1027.3
2023-02-09T02:04:16.947Z,1027.4
2023-02-09T02:09:23.297Z,1027.3
2023-02-09T02:14:29.739Z,1027.3
2023-02-09T02:19:36.172Z,1027.2
2023-02-09T02:24:42.509Z,1027.1
2023-02-09T02:30:12.944Z,1027.0
2023-02-09T02:35:19.353Z,1027.0
2023-02-09T02:40:02.799Z,1026.8
2023-02-09T02:45:29.249Z,1026.9
2023-02-09T02:51:15.706Z,1026.8
2023-02-09T02:56:06.061Z,1026.9
2023-02-09T03:00:28.362Z,1026.8
2023-02-09T03:05:58.828Z,1026.8
2023-02-09T03:10:41.200Z,1026.7
2023-02-09T03:16:51.229Z,1026.8
2023-02-09T03:23:18.967Z,1026.7
2023-02-09T03:26:05.128Z,1026.8
2023-02-09T03:31:31.634Z,1026.7
2023-02-09T03:36:17.952Z,1026.7
2023-02-09T03:41:24.424Z,1026.7
2023-02-09T03:46:30.882Z,1026.6
2023-02-09T03:51:37.260Z,1026.4
2023-02-09T03:56:43.814Z,1026.4
2023-02-09T04:02:14.979Z,1026.4
2023-02-09T04:07:17.236Z,1026.2
2023-02-09T04:12:27.648Z,1026.3
2023-02-09T04:17:09.986Z,1026.3
2023-02-09T04:22:16.414Z,1026.4
2023-02-09T04:27:26.518Z,1026.5
2023-02-09T04:32:32.942Z,1026.5
2023-02-09T04:37:39.335Z,1026.5
2023-02-09T04:43:50.879Z,1026.3
2023-02-09T04:48:58.248Z,1026.2
2023-02-09T04:53:46.171Z,1026.2
2023-02-09T04:59:28.650Z,1026.0
2023-02-09T05:04:37.225Z,1026.1
2023-02-09T05:11:07.763Z,1026.2
2023-02-09T05:14:50.019Z,1026.2
2023-02-09T05:20:40.451Z,1026.1
2023-02-09T05:33:42.638Z,1026.2
2023-02-09T05:53:05.703Z,1026.1
2023-02-09T05:58:27.284Z,1026.2
2023-02-09T06:11:42.002Z,1026.5
2023-02-09T06:16:50.198Z,1026.6
2023-02-09T06:22:11.710Z,1026.6
2023-02-09T06:27:19.122Z,1026.5
2023-02-09T06:32:27.675Z,1026.6
2023-02-09T06:37:34.044Z,1026.6
2023-02-09T06:43:40.573Z,1026.5
2023-02-09T06:48:10.858Z,1026.7
2023-02-09T06:52:54.756Z,1026.6
2023-02-09T06:58:01.161Z,1026.6
2023-02-09T07:04:07.875Z,1026.7
2023-02-09T07:08:14.117Z,1026.5
2023-02-09T07:13:20.484Z,1026.7
2023-02-09T07:18:26.864Z,1026.9
2023-02-09T07:23:33.457Z,1026.8
2023-02-09T07:34:06.252Z,1026.9
2023-02-09T07:37:00.572Z,1026.9
2023-02-09T07:38:52.623Z,1026.9
2023-02-09T07:43:58.996Z,1026.9
2023-02-09T07:49:05.370Z,1026.9
2023-02-09T07:54:11.780Z,1027.1
2023-02-09T07:59:18.145Z,1027.0
2023-02-09T08:04:48.590Z,1027.1
2023-02-09T08:09:22.024Z,1027.0
2023-02-09T08:14:38.395Z,1027.0
2023-02-09T08:19:44.778Z,1027.2
2023-02-09T08:25:11.224Z,1027.2
2023-02-09T08:31:09.769Z,1027.2
2023-02-09T08:35:03.907Z,1027.2
2023-02-09T08:40:00.256Z,1027.2
2023-02-09T08:45:17.770Z,1027.0
2023-02-09T08:51:25.251Z,1027.1
2023-02-09T08:56:08.676Z,1026.9
2023-02-09T09:01:18.871Z,1026.8
2023-02-09T09:06:25.130Z,1026.8
2023-02-09T09:11:21.516Z,1026.6
2023-02-09T09:16:38.035Z,1026.7
2023-02-09T09:21:44.266Z,1026.7
2023-02-09T09:27:10.700Z,1026.8
2023-02-09T09:31:57.086Z,1026.8
2023-02-09T09:37:03.550Z,1026.9
2023-02-09T09:42:34.706Z,1026.7
2023-02-09T09:47:21.170Z,1026.6
2023-02-09T09:52:27.517Z,1026.5
2023-02-09T09:57:53.911Z,1026.6
2023-02-09T10:08:31.743Z,1026.6
2023-02-09T10:13:39.098Z,1026.8
2023-02-09T10:18:45.486Z,1026.8
2023-02-09T10:23:51.876Z,1026.9
2023-02-09T10:28:58.274Z,1026.8
2023-02-09T10:34:06.204Z,1026.9
2023-02-09T10:39:12.609Z,1026.9
2023-02-09T10:44:19.083Z,1026.9
2023-02-09T10:49:25.442Z,1026.8
2023-02-09T10:54:21.821Z,1026.8
2023-02-09T10:59:38.319Z,1026.8
2023-02-09T11:04:44.808Z,1026.7
2023-02-09T11:09:41.080Z,1026.6
2023-02-09T11:14:57.457Z,1026.7
2023-02-09T11:20:03.825Z,1026.4
2023-02-09T11:25:10.251Z,1026.4
2023-02-09T11:30:16.760Z,1026.4
2023-02-09T11:35:13.100Z,1026.2
2023-02-09T11:40:29.509Z,1026.2
2023-02-09T11:45:35.882Z,1026.2
2023-02-09T11:50:42.267Z,1026.1
2023-02-09T11:55:48.642Z,1026.2
2023-02-09T12:01:06.782Z,1026.1
2023-02-09T12:06:25.487Z,1026.0
2023-02-09T12:11:31.866Z,1026.1
2023-02-09T12:16:14.240Z,1026.1
2023-02-09T12:21:20.530Z,1026.0
2023-02-09T12:26:28.484Z,1025.9
2023-02-09T12:31:35.028Z,1026.1
2023-02-09T12:36:41.273Z,1026.0
2023-02-09T12:41:47.647Z,1026.1
2023-02-09T12:46:54.187Z,1026.0
2023-02-09T12:52:00.546Z,1026.1
2023-02-09T12:56:56.895Z,1026.1
2023-02-09T13:02:13.329Z,1026.2
2023-02-09T13:07:21.373Z,1026.1
2023-02-09T13:12:27.736Z,1026.1
2023-02-09T13:17:34.167Z,1026.1
2023-02-09T13:27:45.973Z,1026.2
2023-02-09T13:32:53.499Z,1026.1
2023-02-09T13:37:59.850Z,1026.2
2023-02-09T13:43:06.215Z,1026.1
2023-02-09T13:48:13.179Z,1026.1
2023-02-09T13:53:18.969Z,1026.2
2023-02-09T13:58:25.426Z,1026.3
2023-02-09T14:03:31.933Z,1026.2
2023-02-09T14:08:38.386Z,1026.3
2023-02-09T14:13:44.760Z,1026.3
2023-02-09T14:18:51.192Z,1026.2
2023-02-09T14:23:57.529Z,1026.2
2023-02-09T14:29:03.937Z,1026.4
2023-02-09T14:34:12.457Z,1026.3
2023-02-09T14:39:17.999Z,1026.2
2023-02-09T14:44:27.959Z,1026.3
2023-02-09T14:49:34.350Z,1026.4
2023-02-09T14:54:40.707Z,1026.4
2023-02-09T14:59:37.058Z,1026.2
2023-02-09T15:04:53.642Z,1026.3
2023-02-09T15:10:00.136Z,1026.4
2023-02-09T15:15:06.464Z,1026.5
2023-02-09T15:20:12.856Z,1026.5
2023-02-09T15:25:19.807Z,1026.5
2023-02-09T15:30:26.169Z,1026.6
2023-02-09T15:35:33.099Z,1026.7
2023-02-09T15:40:39.605Z,1026.7
2023-02-09T15:45:46.080Z,1026.8
2023-02-09T15:50:52.542Z,1026.9
2023-02-09T15:55:58.954Z,1026.9
2023-02-09T16:01:29.306Z,1026.9
2023-02-09T16:06:11.621Z,1026.9
2023-02-09T16:11:18.054Z,1027.0
2023-02-09T16:16:25.660Z,1027.0
2023-02-09T16:21:21.994Z,1027.0
2023-02-09T16:26:38.353Z,1027.1
2023-02-09T16:32:04.775Z,1027.1
2023-02-09T16:36:51.125Z,1027.2
2023-02-09T16:41:57.592Z,1027.3
2023-02-09T16:47:04.067Z,1027.3
2023-02-09T16:52:10.396Z,1027.5
2023-02-09T16:57:20.335Z,1027.6
2023-02-09T17:02:26.734Z,1027.6
2023-02-09T17:07:39.812Z,1027.6
2023-02-09T17:12:39.591Z,1027.6
2023-02-09T17:17:46.076Z,1027.7
2023-02-09T17:22:56.500Z,1027.7
2023-02-09T17:27:58.939Z,1027.7
2023-02-09T17:33:29.268Z,1027.8
2023-02-09T17:38:11.620Z,1027.9
2023-02-09T17:43:17.960Z,1027.9
2023-02-09T17:48:24.431Z,1028.0
2023-02-09T17:53:54.891Z,1028.0
2023-02-09T17:58:37.209Z,1028.0
2023-02-09T18:04:03.848Z,1028.1
2023-02-09T18:08:50.205Z,1028.1
2023-02-09T18:13:56.776Z,1028.1
2023-02-09T18:19:03.124Z,1028.1
2023-02-09T18:24:10.540Z,1028.2
2023-02-09T18:29:37.012Z,1028.3
2023-02-09T18:34:23.323Z,1028.3
2023-02-09T18:39:53.783Z,1028.4
2023-02-09T18:44:26.046Z,1028.4
2023-02-09T18:49:42.672Z,1028.5
2023-02-09T18:54:49.237Z,1028.5
2023-02-09T19:00:19.768Z,1028.6
2023-02-09T19:05:02.132Z,1028.6
2023-02-09T19:10:08.500Z,1028.6
2023-02-09T19:15:14.880Z,1028.6
2023-02-09T19:20:35.358Z,1028.6
2023-02-09T19:25:27.700Z,1028.7
2023-02-09T19:30:56.277Z,1028.7
2023-02-09T19:36:06.677Z,1028.8
2023-02-09T19:41:10.928Z,1029.0
2023-02-09T19:45:55.379Z,1029.1
2023-02-09T19:51:01.760Z,1029.1
2023-02-09T19:56:28.266Z,1029.0
2023-02-09T20:02:14.108Z,1029.1
2023-02-09T20:06:21.388Z,1029.1
2023-02-09T20:16:34.231Z,1029.0
2023-02-09T20:17:28.254Z,1029.2
2023-02-09T20:22:52.798Z,1029.1
2023-02-09T20:26:47.034Z,1029.1
2023-02-09T20:32:17.496Z,1029.2
2023-02-09T20:36:59.825Z,1029.2
2023-02-09T20:43:18.330Z,1029.1
2023-02-09T20:48:24.752Z,1029.2
2023-02-09T20:52:18.987Z,1029.3
2023-02-09T20:57:26.491Z,1029.2
2023-02-09T21:02:56.993Z,1029.3
2023-02-09T21:07:39.286Z,1029.3
2023-02-09T21:12:45.860Z,1029.4
2023-02-09T21:17:52.216Z,1029.4
2023-02-09T21:22:58.605Z,1029.4
2023-02-09T21:28:05.122Z,1029.2
2023-02-09T21:33:11.618Z,1029.1
2023-02-09T21:38:42.166Z,1029.2
2023-02-09T21:43:48.523Z,1029.2
2023-02-09T21:48:50.886Z,1029.3
2023-02-09T21:53:37.279Z,1029.3
2023-02-09T21:58:43.749Z,1029.3
2023-02-09T22:03:50.495Z,1029.3
2023-02-09T22:08:56.575Z,1029.3
2023-02-09T22:14:23.038Z,1029.3
2023-02-09T22:19:29.390Z,1029.3
2023-02-09T22:24:19.769Z,1029.4
2023-02-09T22:29:22.135Z,1029.3
2023-02-09T22:34:28.662Z,1029.4
2023-02-09T22:39:59.144Z,1029.4
2023-02-09T22:44:41.461Z,1029.4
2023-02-09T22:49:47.869Z,1029.5
2023-02-09T22:54:54.219Z,1029.5
2023-02-09T23:00:00.645Z,1029.5
2023-02-09T23:05:31.070Z,1029.6
2023-02-09T23:10:13.528Z,1029.6
2023-02-09T23:15:19.962Z,1029.7
2023-02-09T23:20:26.336Z,1029.7
2023-02-09T23:25:32.725Z,1029.9
2023-02-09T23:30:39.087Z,1029.9
2023-02-09T23:35:45.673Z,1029.9
2023-02-09T23:41:11.943Z,1029.9
2023-02-09T23:45:58.454Z,1030.0
2023-02-09T23:51:04.892Z,1030.1
